createdAt,value
2018-12-13T00:02:22.587Z,8.70
2018-12-13T00:04:54.271Z,8.77
2018-12-13T00:07:23.973Z,8.40
2018-12-13T00:09:53.633Z,8.67
2018-12-13T00:12:23.370Z,7.97
2018-12-13T00:14:55.345Z,8.00
2018-12-13T00:17:25.216Z,8.33
2018-12-13T00:19:54.885Z,8.50
2018-12-13T00:22:24.507Z,8.20
2018-12-13T00:24:54.106Z,8.73
2018-12-13T00:27:23.807Z,8.30
2018-12-13T00:29:53.593Z,8.00
2018-12-13T00:32:23.268Z,8.50
2018-12-13T00:34:53.125Z,7.97
2018-12-13T00:37:22.834Z,8.53
2018-12-13T00:39:52.599Z,7.83
2018-12-13T00:42:22.878Z,8.60
2018-12-13T00:44:52.528Z,8.60
2018-12-13T00:47:22.316Z,9.20
2018-12-13T00:49:51.988Z,7.93
2018-12-13T00:52:21.616Z,8.60
2018-12-13T00:54:51.994Z,7.70
2018-12-13T00:57:21.629Z,8.57
2018-12-13T00:59:51.360Z,8.70
2018-12-13T01:02:21.722Z,9.20
2018-12-13T01:04:51.456Z,8.93
2018-12-13T01:07:21.103Z,9.57
2018-12-13T01:09:50.820Z,8.67
2018-12-13T01:12:21.032Z,9.43
2018-12-13T01:14:50.776Z,9.10
2018-12-13T01:17:20.490Z,8.60
2018-12-13T01:19:50.110Z,7.90
2018-12-13T01:22:19.774Z,8.73
2018-12-13T01:24:49.429Z,8.33
2018-12-13T01:27:19.665Z,8.87
2018-12-13T01:29:50.085Z,8.63
2018-12-13T01:32:19.705Z,8.97
2018-12-13T01:34:49.339Z,7.77
2018-12-13T01:37:18.979Z,9.37
2018-12-13T01:39:48.682Z,9.07
2018-12-13T01:42:18.331Z,9.03
2018-12-13T01:44:48.051Z,9.03
2018-12-13T01:47:17.700Z,9.17
2018-12-13T01:49:48.180Z,8.00
2018-12-13T01:52:18.005Z,8.87
2018-12-13T01:54:47.615Z,8.10
2018-12-13T01:57:17.286Z,8.13
2018-12-13T01:59:46.978Z,8.83
2018-12-13T02:02:16.681Z,8.50
2018-12-13T02:04:46.327Z,8.90
2018-12-13T02:07:15.970Z,8.93
2018-12-13T02:09:45.682Z,7.93
2018-12-13T02:12:15.749Z,8.70
2018-12-13T02:14:46.394Z,8.60
2018-12-13T02:17:16.006Z,8.80
2018-12-13T02:19:45.648Z,8.77
2018-12-13T02:22:15.449Z,7.73
2018-12-13T02:24:45.096Z,7.83
2018-12-13T02:27:14.891Z,7.97
2018-12-13T02:29:44.536Z,7.50
2018-12-13T02:32:14.671Z,8.27
2018-12-13T02:34:44.361Z,9.30
2018-12-13T02:37:14.023Z,8.30
2018-12-13T02:39:43.701Z,9.17
2018-12-13T02:42:13.437Z,7.70
2018-12-13T02:44:43.117Z,8.70
2018-12-13T02:47:12.849Z,7.57
2018-12-13T02:49:42.467Z,8.17
2018-12-13T02:52:13.532Z,8.20
2018-12-13T02:54:43.492Z,8.53
2018-12-13T02:57:13.151Z,8.43
2018-12-13T02:59:42.879Z,8.70
2018-12-13T03:02:12.640Z,8.67
2018-12-13T03:04:42.597Z,9.00
2018-12-13T03:07:13.888Z,9.17
2018-12-13T03:09:43.939Z,9.13
2018-12-13T03:12:13.566Z,9.50
2018-12-13T03:14:43.261Z,9.30
2018-12-13T03:17:12.905Z,9.57
2018-12-13T03:19:42.564Z,10.07
2018-12-13T03:22:12.207Z,9.27
2018-12-13T03:24:41.817Z,10.63
2018-12-13T03:27:12.808Z,9.23
2018-12-13T03:29:43.062Z,9.20
2018-12-13T03:32:12.712Z,9.23
2018-12-13T03:34:42.508Z,9.90
2018-12-13T03:37:12.128Z,9.17
2018-12-13T03:39:42.347Z,9.43
2018-12-13T03:42:12.077Z,9.83
2018-12-13T03:44:42.308Z,9.23
2018-12-13T03:47:12.002Z,9.53
2018-12-13T03:49:41.708Z,10.30
2018-12-13T03:52:11.402Z,9.97
2018-12-13T03:54:41.241Z,10.10
2018-12-13T03:57:11.028Z,10.03
2018-12-13T03:59:40.664Z,9.60
2018-12-13T04:02:10.268Z,10.37
2018-12-13T04:04:39.902Z,9.73
2018-12-13T04:07:09.648Z,10.23
2018-12-13T04:09:39.288Z,11.17
2018-12-13T04:12:08.945Z,8.70
2018-12-13T04:14:40.249Z,9.77
2018-12-13T04:17:10.438Z,9.63
2018-12-13T04:19:41.154Z,8.93
2018-12-13T04:22:10.878Z,9.50
2018-12-13T04:24:41.074Z,9.37
2018-12-13T04:27:10.737Z,8.67
2018-12-13T04:29:40.347Z,10.13
2018-12-13T04:32:10.006Z,9.10
2018-12-13T04:34:39.673Z,9.77
2018-12-13T04:37:09.911Z,9.47
2018-12-13T04:39:40.173Z,9.80
2018-12-13T04:42:10.755Z,9.13
2018-12-13T04:44:40.397Z,9.53
2018-12-13T04:47:10.031Z,9.33
2018-12-13T04:49:39.805Z,9.40
2018-12-13T04:52:09.657Z,10.10
2018-12-13T04:54:39.322Z,8.97
2018-12-13T04:57:09.584Z,9.23
2018-12-13T04:59:39.290Z,9.40
2018-12-13T05:02:08.942Z,8.80
2018-12-13T05:04:38.705Z,9.10
2018-12-13T05:07:08.329Z,9.37
2018-12-13T05:09:38.113Z,9.27
2018-12-13T05:12:07.733Z,9.03
2018-12-13T05:14:37.379Z,9.40
2018-12-13T05:17:06.976Z,9.43
2018-12-13T05:19:36.639Z,8.93
2018-12-13T05:22:06.265Z,8.53
2018-12-13T05:24:35.937Z,8.50
2018-12-13T05:27:05.570Z,9.27
2018-12-13T05:29:35.214Z,8.67
2018-12-13T05:32:05.043Z,8.30
2018-12-13T05:34:34.661Z,7.80
2018-12-13T05:37:04.405Z,8.33
2018-12-13T05:39:34.132Z,8.73
2018-12-13T05:42:03.790Z,8.63
2018-12-13T05:44:33.462Z,7.63
2018-12-13T05:47:03.326Z,8.30
2018-12-13T05:49:32.976Z,8.17
2018-12-13T05:52:02.605Z,7.97
2018-12-13T05:54:32.402Z,8.17
2018-12-13T05:57:02.211Z,8.90
2018-12-13T05:59:32.112Z,8.57
2018-12-13T06:02:01.976Z,8.77
2018-12-13T06:04:31.704Z,7.93
2018-12-13T06:07:01.355Z,7.70
2018-12-13T06:09:31.685Z,8.03
2018-12-13T06:12:01.334Z,8.57
2018-12-13T06:14:30.998Z,7.77
2018-12-13T06:17:00.729Z,7.63
2018-12-13T06:19:30.428Z,8.43
2018-12-13T06:22:00.211Z,8.80
2018-12-13T06:24:29.828Z,8.63
2018-12-13T06:26:59.571Z,7.97
2018-12-13T06:29:29.282Z,8.93
2018-12-13T06:31:58.973Z,8.63
2018-12-13T06:34:28.630Z,8.67
2018-12-13T06:36:58.905Z,8.00
2018-12-13T06:39:29.219Z,9.07
2018-12-13T06:41:58.919Z,8.37
2018-12-13T06:44:28.855Z,8.90
2018-12-13T06:46:58.591Z,8.63
2018-12-13T06:49:28.236Z,8.00
2018-12-13T06:51:57.867Z,8.50
2018-12-13T06:54:27.630Z,8.50
2018-12-13T06:56:57.913Z,8.97
2018-12-13T06:59:27.556Z,8.73
2018-12-13T07:01:57.370Z,8.63
2018-12-13T07:04:27.172Z,8.20
2018-12-13T07:06:57.570Z,9.20
2018-12-13T07:09:27.216Z,9.27
2018-12-13T07:11:56.876Z,9.13
2018-12-13T07:14:26.608Z,10.20
2018-12-13T07:16:56.262Z,10.00
2018-12-13T07:19:25.892Z,10.33
2018-12-13T07:21:55.627Z,9.13
2018-12-13T07:24:25.410Z,10.97
2018-12-13T07:26:55.047Z,9.87
2018-12-13T07:29:24.700Z,9.63
2018-12-13T07:31:55.142Z,10.40
2018-12-13T07:34:24.807Z,10.17
2018-12-13T07:36:54.463Z,10.63
2018-12-13T07:39:24.136Z,10.87
2018-12-13T07:41:53.767Z,10.27
2018-12-13T07:44:23.402Z,10.90
2018-12-13T07:46:53.302Z,10.23
2018-12-13T07:49:22.938Z,10.00
2018-12-13T07:51:52.638Z,10.93
2018-12-13T07:54:22.247Z,10.20
2018-12-13T07:56:51.901Z,10.10
2018-12-13T07:59:22.150Z,10.30
2018-12-13T08:01:51.947Z,9.43
2018-12-13T08:04:21.747Z,9.70
2018-12-13T08:06:51.511Z,10.57
2018-12-13T08:09:21.198Z,10.30
2018-12-13T08:11:51.025Z,10.47
2018-12-13T08:14:20.669Z,11.00
2018-12-13T08:16:50.892Z,9.17
2018-12-13T08:19:22.585Z,9.90
2018-12-13T08:21:54.221Z,9.47
2018-12-13T08:24:23.857Z,10.00
2018-12-13T08:26:55.565Z,11.43
2018-12-13T08:29:25.262Z,11.77
2018-12-13T08:31:54.911Z,9.93
2018-12-13T08:34:24.599Z,10.07
2018-12-13T08:36:54.266Z,10.17
2018-12-13T08:39:23.974Z,9.20
2018-12-13T08:41:53.934Z,10.23
2018-12-13T08:44:23.595Z,11.23
2018-12-13T08:46:54.190Z,11.07
2018-12-13T08:49:23.868Z,9.53
2018-12-13T08:51:53.534Z,10.93
2018-12-13T08:54:23.234Z,11.23
2018-12-13T08:56:52.960Z,11.83
2018-12-13T08:59:23.419Z,11.03
2018-12-13T09:01:53.109Z,11.47
2018-12-13T09:04:23.761Z,10.43
2018-12-13T09:06:53.597Z,11.03
2018-12-13T09:09:23.503Z,11.27
2018-12-13T09:11:53.228Z,11.30
2018-12-13T09:14:22.924Z,10.77
2018-12-13T09:16:52.592Z,10.93
2018-12-13T09:19:22.430Z,11.43
2018-12-13T09:21:52.088Z,12.53
2018-12-13T09:24:21.702Z,11.20
2018-12-13T09:26:51.405Z,12.57
2018-12-13T09:29:21.057Z,11.10
2018-12-13T09:31:50.820Z,10.10
2018-12-13T09:34:20.474Z,10.27
2018-12-13T09:36:50.199Z,11.40
2018-12-13T09:39:19.928Z,11.17
2018-12-13T09:41:49.646Z,11.83
2018-12-13T09:44:19.358Z,12.23
2018-12-13T09:46:49.189Z,11.87
2018-12-13T09:49:19.030Z,12.10
2018-12-13T09:51:49.501Z,12.63
2018-12-13T09:54:19.131Z,11.57
2018-12-13T09:56:48.811Z,12.10
2018-12-13T09:59:18.540Z,12.57
2018-12-13T10:01:48.820Z,12.03
2018-12-13T10:04:18.482Z,10.70
2018-12-13T10:06:49.069Z,12.10
2018-12-13T10:09:18.899Z,11.87
2018-12-13T10:11:49.013Z,11.73
2018-12-13T10:14:18.747Z,12.17
2018-12-13T10:16:48.477Z,11.57
2018-12-13T10:19:18.136Z,11.73
2018-12-13T10:21:47.774Z,11.70
2018-12-13T10:24:17.443Z,11.57
2018-12-13T10:26:47.105Z,11.37
2018-12-13T10:29:17.497Z,12.40
2018-12-13T10:31:47.159Z,12.77
2018-12-13T10:34:18.566Z,12.20
2018-12-13T10:36:48.815Z,11.53
2018-12-13T10:39:18.502Z,11.63
2018-12-13T10:41:48.921Z,12.33
2018-12-13T10:44:23.410Z,10.97
2018-12-13T10:46:54.159Z,12.03
2018-12-13T10:49:24.141Z,11.97
2018-12-13T10:51:53.851Z,11.53
2018-12-13T10:54:23.864Z,12.30
2018-12-13T10:56:53.493Z,12.50
2018-12-13T10:59:23.294Z,11.83
2018-12-13T11:01:58.220Z,11.43
2018-12-13T11:04:27.842Z,12.60
2018-12-13T11:06:58.001Z,12.40
2018-12-13T11:09:27.770Z,10.87
2018-12-13T11:11:57.546Z,11.80
2018-12-13T11:14:27.158Z,11.40
2018-12-13T11:16:56.929Z,11.77
2018-12-13T11:19:26.560Z,11.37
2018-12-13T11:21:56.317Z,12.17
2018-12-13T11:24:25.965Z,11.30
2018-12-13T11:27:02.761Z,12.60
2018-12-13T11:30:39.985Z,12.93
2018-12-13T11:33:09.766Z,11.67
2018-12-13T11:35:39.512Z,11.87
2018-12-13T11:38:09.834Z,11.43
2018-12-13T11:40:40.324Z,11.50
2018-12-13T11:43:11.413Z,12.70
2018-12-13T11:45:41.112Z,9.97
2018-12-13T11:48:10.845Z,11.87
2018-12-13T11:50:40.494Z,11.57
2018-12-13T11:53:10.175Z,10.20
2018-12-13T11:55:40.645Z,13.80
2018-12-13T11:58:13.476Z,11.83
2018-12-13T12:00:43.162Z,12.00
2018-12-13T12:03:13.402Z,13.72
2018-12-13T12:05:43.158Z,14.63
2018-12-13T12:08:13.113Z,14.23
2018-12-13T12:10:43.092Z,13.80
2018-12-13T12:13:12.839Z,14.57
2018-12-13T12:15:42.534Z,14.43
2018-12-13T12:18:12.211Z,15.30
2018-12-13T12:20:42.068Z,13.95
2018-12-13T12:23:11.835Z,13.85
2018-12-13T12:25:42.256Z,15.63
2018-12-13T12:28:12.907Z,13.95
2018-12-13T12:30:43.671Z,14.40
2018-12-13T12:33:13.381Z,14.25
2018-12-13T12:35:43.080Z,14.00
2018-12-13T12:38:12.754Z,14.23
2018-12-13T12:40:42.633Z,16.23
2018-12-13T12:43:12.855Z,14.83
2018-12-13T12:45:43.071Z,14.68
2018-12-13T12:48:12.692Z,13.13
2018-12-13T12:50:42.398Z,13.68
2018-12-13T12:53:12.053Z,14.28
2018-12-13T12:55:41.821Z,14.25
2018-12-13T12:58:11.460Z,14.07
2018-12-13T13:00:41.176Z,13.80
2018-12-13T13:03:10.839Z,14.18
2018-12-13T13:05:40.591Z,14.35
2018-12-13T13:08:10.284Z,13.90
2018-12-13T13:10:40.913Z,15.00
2018-12-13T13:13:10.708Z,14.17
2018-12-13T13:15:40.366Z,13.65
2018-12-13T13:18:10.028Z,15.03
2018-12-13T13:20:39.782Z,13.93
2018-12-13T13:23:09.479Z,13.33
2018-12-13T13:25:39.901Z,13.85
2018-12-13T13:28:09.650Z,13.50
2018-12-13T13:30:39.328Z,13.67
2018-12-13T13:33:08.977Z,13.50
2018-12-13T13:35:38.656Z,13.18
2018-12-13T13:38:08.374Z,12.10
2018-12-13T13:40:38.038Z,12.07
2018-12-13T13:43:07.726Z,13.05
2018-12-13T13:45:38.018Z,12.28
2018-12-13T13:48:07.752Z,11.85
2018-12-13T13:50:37.521Z,12.30
2018-12-13T13:53:07.174Z,12.30
2018-12-13T13:55:37.363Z,12.18
2018-12-13T13:58:07.209Z,11.70
2018-12-13T14:00:37.962Z,11.70
2018-12-13T14:03:07.653Z,11.77
2018-12-13T14:05:37.428Z,12.10
2018-12-13T14:08:08.273Z,11.97
2018-12-13T14:10:37.970Z,11.22
2018-12-13T14:13:08.365Z,10.30
2018-12-13T14:15:38.321Z,10.50
2018-12-13T14:18:08.165Z,10.70
2018-12-13T14:20:38.515Z,10.35
2018-12-13T14:23:08.342Z,13.00
2018-12-13T14:25:38.074Z,10.10
2018-12-13T14:28:07.748Z,9.97
2018-12-13T14:30:37.540Z,9.70
2018-12-13T14:33:07.439Z,8.88
2018-12-13T14:35:37.806Z,9.28
2018-12-13T14:38:07.555Z,8.63
2018-12-13T14:40:39.891Z,8.20
2018-12-13T14:43:11.515Z,8.70
2018-12-13T14:45:42.466Z,7.95
2018-12-13T14:48:12.216Z,8.43
2018-12-13T14:50:41.883Z,9.00
2018-12-13T14:53:11.574Z,8.20
2018-12-13T14:55:41.234Z,8.88
2018-12-13T14:58:11.013Z,8.63
2018-12-13T15:00:41.620Z,8.90
2018-12-13T15:03:11.439Z,8.15
2018-12-13T15:05:41.243Z,8.48
2018-12-13T15:08:11.009Z,8.27
2018-12-13T15:10:40.735Z,8.00
2018-12-13T15:13:10.688Z,8.65
2018-12-13T15:15:40.486Z,8.97
2018-12-13T15:18:10.182Z,8.40
2018-12-13T15:20:40.035Z,8.15
2018-12-13T15:23:09.675Z,8.18
2018-12-13T15:25:39.463Z,8.23
2018-12-13T15:28:09.205Z,8.55
2018-12-13T15:30:39.036Z,8.10
2018-12-13T15:33:08.766Z,7.97
2018-12-13T15:35:38.494Z,8.60
2018-12-13T15:38:08.221Z,9.55
2018-12-13T15:40:38.672Z,8.80
2018-12-13T15:43:08.449Z,9.13
2018-12-13T15:45:38.329Z,9.10
2018-12-13T15:48:08.197Z,8.40
2018-12-13T15:50:37.864Z,8.65
2018-12-13T15:53:07.605Z,8.17
2018-12-13T15:55:38.017Z,8.40
2018-12-13T15:58:07.658Z,8.40
2018-12-13T16:00:37.410Z,8.60
2018-12-13T16:03:07.479Z,8.93
2018-12-13T16:05:37.703Z,7.75
2018-12-13T16:08:07.614Z,8.75
2018-12-13T16:10:37.338Z,8.68
2018-12-13T16:13:07.144Z,8.35
2018-12-13T16:15:37.387Z,8.05
2018-12-13T16:18:07.136Z,8.53
2018-12-13T16:20:36.812Z,8.23
2018-12-13T16:23:06.580Z,7.95
2018-12-13T16:25:36.630Z,7.33
2018-12-13T16:28:06.397Z,7.70
2018-12-13T16:30:37.147Z,7.60
2018-12-13T16:33:07.730Z,7.92
2018-12-13T16:35:38.564Z,8.18
2018-12-13T16:38:09.586Z,7.43
2018-12-13T16:40:40.017Z,7.60
2018-12-13T16:43:09.849Z,8.07
2018-12-13T16:45:39.685Z,8.38
2018-12-13T16:48:11.039Z,8.48
2018-12-13T16:50:40.799Z,8.58
2018-12-13T16:53:10.521Z,7.37
2018-12-13T16:55:41.238Z,8.00
2018-12-13T16:58:10.973Z,7.50
2018-12-13T17:00:40.694Z,8.60
2018-12-13T17:03:21.474Z,8.98
2018-12-13T17:05:53.542Z,8.53
2018-12-13T17:08:23.606Z,8.27
2018-12-13T17:10:53.458Z,9.18
2018-12-13T17:13:24.196Z,8.60
2018-12-13T17:15:54.562Z,8.28
2018-12-13T17:18:24.708Z,7.95
2018-12-13T17:20:55.814Z,8.53
2018-12-13T17:23:25.605Z,9.80
2018-12-13T17:25:55.526Z,8.38
2018-12-13T17:28:25.274Z,9.23
2018-12-13T17:30:55.161Z,10.63
2018-12-13T17:33:25.225Z,9.70
2018-12-13T17:35:55.625Z,7.63
2018-12-13T17:38:26.569Z,7.62
2018-12-13T17:40:56.244Z,7.90
2018-12-13T17:43:26.113Z,7.73
2018-12-13T17:45:55.994Z,8.13
2018-12-13T17:48:27.002Z,8.00
2018-12-13T17:50:56.800Z,8.63
2018-12-13T17:53:26.628Z,7.95
2018-12-13T17:55:56.477Z,8.55
2018-12-13T17:58:26.387Z,8.15
2018-12-13T18:00:56.229Z,8.68
2018-12-13T18:03:26.256Z,9.60
2018-12-13T18:05:56.020Z,9.80
2018-12-13T18:08:25.874Z,9.47
2018-12-13T18:10:55.608Z,8.98
2018-12-13T18:13:25.469Z,9.00
2018-12-13T18:15:56.188Z,9.73
2018-12-13T18:18:26.559Z,8.67
2018-12-13T18:20:56.383Z,9.15
2018-12-13T18:23:26.204Z,9.75
2018-12-13T18:25:56.014Z,9.40
2018-12-13T18:28:26.893Z,9.23
2018-12-13T18:30:56.937Z,9.13
2018-12-13T18:33:26.695Z,9.00
2018-12-13T18:35:56.456Z,9.58
2018-12-13T18:38:26.275Z,9.53
2018-12-13T18:40:56.066Z,9.30
2018-12-13T18:43:25.917Z,9.40
2018-12-13T18:45:55.598Z,9.78
2018-12-13T18:48:25.520Z,10.40
2018-12-13T18:50:56.159Z,10.08
2018-12-13T18:53:26.711Z,9.83
2018-12-13T18:55:57.090Z,10.45
2018-12-13T18:58:28.026Z,9.40
2018-12-13T19:00:58.345Z,9.20
2018-12-13T19:03:28.201Z,9.10
2018-12-13T19:05:58.316Z,8.80
2018-12-13T19:08:28.566Z,10.05
2018-12-13T19:10:58.569Z,9.78
2018-12-13T19:13:28.518Z,9.57
2018-12-13T19:16:01.426Z,8.83
2018-12-13T19:18:31.425Z,8.95
2018-12-13T19:21:01.405Z,6.70
2018-12-13T19:23:31.418Z,7.50
2018-12-13T19:26:01.190Z,7.23
2018-12-13T19:28:31.732Z,7.77
2018-12-13T19:31:01.561Z,7.77
2018-12-13T19:33:31.581Z,7.50
2018-12-13T19:36:01.288Z,7.57
2018-12-13T19:38:32.540Z,6.77
2018-12-13T19:41:02.367Z,7.50
2018-12-13T19:43:32.164Z,7.10
2018-12-13T19:46:02.337Z,6.67
2018-12-13T19:48:32.221Z,7.57
2018-12-13T19:51:03.406Z,7.70
2018-12-13T19:53:33.407Z,7.40
2018-12-13T19:56:03.334Z,6.80
2018-12-13T19:58:33.203Z,7.60
2018-12-13T20:01:03.230Z,6.87
2018-12-13T20:03:34.045Z,7.63
2018-12-13T20:06:04.006Z,7.13
2018-12-13T20:08:33.790Z,7.07
2018-12-13T20:11:03.582Z,6.93
2018-12-13T20:13:33.408Z,7.27
2018-12-13T20:16:04.221Z,8.87
2018-12-13T20:18:34.146Z,9.60
2018-12-13T20:21:04.087Z,9.43
2018-12-13T20:23:34.013Z,9.23
2018-12-13T20:26:04.683Z,8.13
2018-12-13T20:28:34.466Z,7.97
2018-12-13T20:31:04.402Z,8.67
2018-12-13T20:33:34.155Z,8.53
2018-12-13T20:36:04.045Z,9.00
2018-12-13T20:38:33.836Z,9.90
2018-12-13T20:41:03.693Z,10.07
2018-12-13T20:43:33.524Z,10.03
2018-12-13T20:46:03.614Z,9.67
2018-12-13T20:48:33.427Z,9.90
2018-12-13T20:51:03.824Z,8.40
2018-12-13T20:53:33.742Z,8.00
2018-12-13T20:56:04.538Z,8.93
2018-12-13T20:58:34.375Z,8.80
2018-12-13T21:01:05.051Z,7.83
2018-12-13T21:03:35.900Z,7.83
2018-12-13T21:06:05.691Z,8.80
2018-12-13T21:08:36.089Z,7.70
2018-12-13T21:11:07.583Z,8.43
2018-12-13T21:13:37.609Z,8.03
2018-12-13T21:16:08.270Z,8.80
2018-12-13T21:18:38.092Z,9.20
2018-12-13T21:21:08.018Z,8.83
2018-12-13T21:23:37.755Z,9.13
2018-12-13T21:26:07.514Z,8.37
2018-12-13T21:28:37.178Z,8.23
2018-12-13T21:31:07.058Z,8.17
2018-12-13T21:33:38.249Z,8.23
2018-12-13T21:36:08.274Z,8.77
2018-12-13T21:38:38.713Z,8.80
2018-12-13T21:41:13.668Z,7.50
2018-12-13T21:43:40.317Z,8.37
2018-12-13T21:46:10.293Z,8.60
2018-12-13T21:48:40.231Z,8.47
2018-12-13T21:51:09.928Z,8.90
2018-12-13T21:53:40.644Z,8.80
2018-12-13T21:56:10.346Z,8.10
2018-12-13T21:58:39.997Z,9.77
2018-12-13T22:01:09.760Z,9.67
2018-12-13T22:03:39.473Z,9.97
2018-12-13T22:06:09.295Z,9.10
2018-12-13T22:08:39.148Z,8.80
2018-12-13T22:11:08.830Z,9.03
2018-12-13T22:13:38.527Z,8.83
2018-12-13T22:16:08.214Z,8.47
2018-12-13T22:18:37.877Z,8.40
2018-12-13T22:21:07.807Z,8.63
2018-12-13T22:23:37.496Z,8.90
2018-12-13T22:26:07.185Z,9.07
2018-12-13T22:28:36.815Z,8.97
2018-12-13T22:31:06.574Z,9.57
2018-12-13T22:33:37.840Z,8.50
2018-12-13T22:36:08.290Z,9.07
2018-12-13T22:38:38.002Z,8.83
2018-12-13T22:41:07.678Z,7.83
2018-12-13T22:43:38.517Z,8.43
2018-12-13T22:46:08.214Z,8.70
2018-12-13T22:48:38.025Z,8.47
2018-12-13T22:51:08.561Z,8.93
2018-12-13T22:53:38.314Z,8.87
2018-12-13T22:56:08.057Z,8.67
2018-12-13T22:58:37.685Z,7.53
2018-12-13T23:01:07.576Z,9.30
2018-12-13T23:03:39.250Z,7.77
2018-12-13T23:06:08.938Z,9.10
2018-12-13T23:08:38.688Z,9.27
2018-12-13T23:11:09.317Z,9.33
2018-12-13T23:13:39.005Z,8.73
2018-12-13T23:16:08.781Z,9.37
2018-12-13T23:18:38.437Z,8.00
2018-12-13T23:21:08.085Z,7.43
2018-12-13T23:23:37.727Z,8.67
2018-12-13T23:26:07.414Z,8.33
2018-12-13T23:28:37.094Z,8.10
2018-12-13T23:31:06.802Z,8.53
2018-12-13T23:33:36.494Z,7.17
2018-12-13T23:36:06.209Z,8.43
2018-12-13T23:38:35.827Z,9.43
2018-12-13T23:41:05.572Z,8.20
2018-12-13T23:43:35.234Z,9.33
2018-12-13T23:46:05.448Z,8.90
2018-12-13T23:48:36.001Z,9.50
2018-12-13T23:51:06.319Z,10.20
2018-12-13T23:53:36.929Z,8.97
2018-12-13T23:56:06.840Z,9.03
2018-12-13T23:58:36.882Z,9.57
